createdAt,value
2022-10-26T00:00:53.602Z,18.38
2022-10-26T00:03:20.057Z,16.55
2022-10-26T00:05:46.544Z,16.60
2022-10-26T00:08:13.017Z,15.73
2022-10-26T00:10:39.781Z,15.10
2022-10-26T00:13:10.101Z,15.95
2022-10-26T00:15:40.730Z,15.85
2022-10-26T00:18:07.131Z,15.90
2022-10-26T00:20:33.547Z,14.55
2022-10-26T00:22:59.961Z,16.85
2022-10-26T00:25:26.396Z,14.82
2022-10-26T00:27:52.970Z,15.23
2022-10-26T00:30:19.389Z,14.60
2022-10-26T00:32:45.812Z,15.45
2022-10-26T00:35:22.861Z,16.00
2022-10-26T00:37:56.163Z,13.77
2022-10-26T00:40:27.964Z,14.18
2022-10-26T00:42:54.499Z,13.50
2022-10-26T00:45:26.767Z,17.10
2022-10-26T00:48:06.573Z,14.18
2022-10-26T00:50:40.703Z,15.25
2022-10-26T00:53:08.253Z,15.93
2022-10-26T00:55:44.534Z,14.48
2022-10-26T00:58:11.920Z,13.52
2022-10-26T01:00:40.212Z,16.00
2022-10-26T01:03:09.185Z,12.90
2022-10-26T01:05:40.236Z,13.30
2022-10-26T01:10:35.785Z,12.93
2022-10-26T01:13:03.042Z,15.13
2022-10-26T01:15:49.697Z,15.30
2022-10-26T01:18:59.765Z,15.10
2022-10-26T01:21:46.632Z,14.38
2022-10-26T01:24:28.861Z,15.90
2022-10-26T01:27:22.892Z,13.80
2022-10-26T01:29:49.253Z,15.32
2022-10-26T01:32:35.448Z,14.77
2022-10-26T01:35:23.691Z,16.17
2022-10-26T01:38:11.608Z,15.95
2022-10-26T01:40:43.782Z,13.45
2022-10-26T01:43:13.597Z,15.20
2022-10-26T01:45:45.258Z,15.07
2022-10-26T01:48:16.201Z,16.10
2022-10-26T01:50:46.818Z,18.55
2022-10-26T01:53:16.984Z,16.60
2022-10-26T01:55:50.655Z,15.57
2022-10-26T01:58:31.981Z,15.57
2022-10-26T02:01:12.722Z,16.55
2022-10-26T02:03:39.228Z,15.52
2022-10-26T02:06:11.412Z,14.93
2022-10-26T02:08:58.408Z,16.85
2022-10-26T02:11:38.238Z,16.30
2022-10-26T02:14:39.258Z,16.13
2022-10-26T02:17:10.697Z,14.35
2022-10-26T02:20:09.056Z,15.27
2022-10-26T02:22:40.464Z,15.43
2022-10-26T02:25:11.161Z,14.13
2022-10-26T02:27:44.477Z,14.77
2022-10-26T02:30:12.834Z,14.63
2022-10-26T02:32:44.458Z,13.77
2022-10-26T02:35:15.204Z,14.52
2022-10-26T02:37:43.894Z,15.93
2022-10-26T02:40:14.251Z,13.52
2022-10-26T02:42:43.981Z,15.85
2022-10-26T02:45:15.239Z,16.15
2022-10-26T02:47:41.708Z,14.40
2022-10-26T02:50:08.622Z,15.93
2022-10-26T02:52:54.653Z,14.52
2022-10-26T02:55:27.429Z,15.80
2022-10-26T02:58:02.195Z,15.18
2022-10-26T03:00:30.687Z,16.05
2022-10-26T03:02:59.372Z,13.85
2022-10-26T03:05:27.998Z,15.05
2022-10-26T03:07:55.291Z,15.77
2022-10-26T03:10:22.261Z,15.43
2022-10-26T03:12:49.196Z,15.73
2022-10-26T03:15:15.826Z,15.52
2022-10-26T03:17:42.574Z,18.17
2022-10-26T03:20:09.745Z,16.80
2022-10-26T03:22:36.157Z,16.05
2022-10-26T03:25:03.155Z,15.95
2022-10-26T03:27:30.031Z,17.67
2022-10-26T03:29:57.740Z,15.77
2022-10-26T03:32:24.277Z,16.40
2022-10-26T03:34:50.711Z,14.93
2022-10-26T03:37:17.116Z,15.38
2022-10-26T03:39:43.508Z,15.25
2022-10-26T03:42:09.948Z,15.50
2022-10-26T03:44:36.372Z,14.63
2022-10-26T03:47:02.847Z,19.08
2022-10-26T03:49:29.273Z,15.15
2022-10-26T03:51:55.674Z,15.48
2022-10-26T03:54:22.111Z,17.67
2022-10-26T03:56:52.655Z,17.48
2022-10-26T03:59:21.455Z,15.48
2022-10-26T04:01:47.945Z,19.90
2022-10-26T04:04:14.446Z,16.77
2022-10-26T04:06:40.908Z,17.45
2022-10-26T04:09:08.247Z,18.27
2022-10-26T04:11:34.945Z,18.52
2022-10-26T04:14:01.363Z,15.52
2022-10-26T04:16:31.106Z,16.60
2022-10-26T04:19:00.015Z,15.43
2022-10-26T04:21:26.505Z,16.83
2022-10-26T04:23:52.897Z,17.77
2022-10-26T04:26:19.396Z,16.10
2022-10-26T04:28:45.847Z,17.35
2022-10-26T04:31:12.257Z,15.25
2022-10-26T04:33:38.697Z,14.25
2022-10-26T04:36:05.356Z,17.30
2022-10-26T04:38:31.794Z,16.58
2022-10-26T04:40:58.236Z,16.20
2022-10-26T04:43:24.708Z,14.98
2022-10-26T04:45:55.083Z,14.65
2022-10-26T04:48:21.570Z,17.58
2022-10-26T04:50:48.060Z,16.70
2022-10-26T04:53:15.730Z,15.65
2022-10-26T04:55:42.456Z,14.35
2022-10-26T04:58:08.952Z,15.52
2022-10-26T05:00:35.436Z,16.67
2022-10-26T05:03:03.794Z,16.20
2022-10-26T05:05:34.645Z,14.23
2022-10-26T05:08:01.301Z,15.25
2022-10-26T05:10:28.404Z,15.18
2022-10-26T05:12:56.602Z,15.18
2022-10-26T05:15:23.411Z,16.75
2022-10-26T05:18:15.889Z,14.82
2022-10-26T05:20:42.333Z,14.82
2022-10-26T05:23:11.675Z,16.63
2022-10-26T05:25:38.684Z,15.43
2022-10-26T05:28:08.452Z,16.30
2022-10-26T05:30:34.966Z,16.20
2022-10-26T05:33:05.803Z,14.98
2022-10-26T05:35:32.581Z,18.08
2022-10-26T05:37:59.572Z,13.25
2022-10-26T05:40:26.248Z,14.13
2022-10-26T05:42:52.970Z,13.55
2022-10-26T05:45:19.787Z,14.93
2022-10-26T05:47:46.997Z,14.77
2022-10-26T05:50:14.222Z,16.30
2022-10-26T05:52:45.224Z,14.82
2022-10-26T05:57:39.922Z,14.70
2022-10-26T06:00:16.479Z,18.33
2022-10-26T06:03:02.490Z,15.25
2022-10-26T06:05:35.627Z,16.05
2022-10-26T06:08:02.276Z,16.40
2022-10-26T06:10:29.027Z,14.88
2022-10-26T06:12:55.761Z,15.85
2022-10-26T06:15:22.565Z,15.60
2022-10-26T06:18:35.253Z,16.80
2022-10-26T06:21:13.497Z,15.40
2022-10-26T06:24:08.278Z,13.98
2022-10-26T06:26:40.824Z,15.65
2022-10-26T06:29:14.627Z,16.80
2022-10-26T06:31:41.049Z,19.65
2022-10-26T06:34:11.929Z,15.88
2022-10-26T06:37:13.185Z,14.95
2022-10-26T06:43:01.600Z,15.00
2022-10-26T06:45:28.282Z,19.48
2022-10-26T06:48:02.777Z,18.33
2022-10-26T06:50:32.406Z,16.58
2022-10-26T06:53:11.969Z,14.05
2022-10-26T06:55:44.271Z,15.35
2022-10-26T06:58:19.317Z,13.68
2022-10-26T07:00:49.041Z,14.80
2022-10-26T07:03:15.779Z,13.80
2022-10-26T07:05:46.141Z,13.75
2022-10-26T07:08:12.840Z,14.45
2022-10-26T07:10:39.921Z,12.63
2022-10-26T07:13:06.875Z,12.85
2022-10-26T07:15:34.920Z,15.30
2022-10-26T07:18:05.627Z,13.48
2022-10-26T07:20:35.457Z,13.35
2022-10-26T07:23:02.092Z,15.02
2022-10-26T07:25:28.566Z,18.38
2022-10-26T07:28:01.393Z,13.27
2022-10-26T07:30:30.151Z,14.05
2022-10-26T07:33:04.901Z,20.60
2022-10-26T07:35:33.084Z,14.45
2022-10-26T07:39:01.999Z,14.35
2022-10-26T07:41:28.630Z,16.33
2022-10-26T07:43:55.053Z,15.52
2022-10-26T07:46:21.627Z,15.98
2022-10-26T07:48:48.100Z,15.95
2022-10-26T07:51:14.645Z,14.85
2022-10-26T07:53:41.124Z,15.98
2022-10-26T07:56:08.591Z,15.80
2022-10-26T07:58:35.112Z,16.42
2022-10-26T08:01:09.768Z,17.58
2022-10-26T08:03:36.459Z,17.05
2022-10-26T08:06:05.009Z,15.48
2022-10-26T08:08:32.494Z,17.50
2022-10-26T08:10:59.365Z,18.17
2022-10-26T08:13:26.257Z,16.35
2022-10-26T08:15:59.835Z,15.25
2022-10-26T08:18:26.994Z,15.88
2022-10-26T08:20:56.387Z,17.70
2022-10-26T08:23:28.341Z,17.15
2022-10-26T08:26:04.127Z,18.98
2022-10-26T08:28:30.597Z,20.55
2022-10-26T08:30:57.254Z,15.85
2022-10-26T08:33:24.847Z,16.05
2022-10-26T08:36:05.475Z,16.75
2022-10-26T08:38:33.815Z,18.55
2022-10-26T08:41:07.008Z,18.45
2022-10-26T08:43:42.801Z,16.30
2022-10-26T08:46:17.564Z,18.95
2022-10-26T08:48:48.216Z,18.75
2022-10-26T08:51:19.682Z,18.17
2022-10-26T08:53:51.943Z,20.88
2022-10-26T08:56:23.489Z,16.45
2022-10-26T08:58:53.806Z,17.00
2022-10-26T09:01:20.535Z,18.63
2022-10-26T09:03:47.117Z,20.42
2022-10-26T09:06:28.501Z,18.10
2022-10-26T09:09:03.200Z,17.05
2022-10-26T09:11:40.355Z,18.52
2022-10-26T09:14:36.029Z,16.63
2022-10-26T09:17:29.042Z,18.38
2022-10-26T09:20:26.740Z,15.75
2022-10-26T09:22:59.016Z,18.48
2022-10-26T09:25:30.439Z,16.67
2022-10-26T09:28:00.937Z,15.30
2022-10-26T09:30:28.070Z,19.83
2022-10-26T09:33:00.042Z,17.98
2022-10-26T09:35:31.707Z,17.50
2022-10-26T09:38:13.432Z,18.25
2022-10-26T09:40:55.229Z,15.75
2022-10-26T09:43:50.132Z,16.50
2022-10-26T09:46:25.113Z,17.88
2022-10-26T09:48:56.072Z,17.25
2022-10-26T09:53:50.415Z,18.05
2022-10-26T09:56:17.919Z,18.20
2022-10-26T09:58:52.679Z,16.88
2022-10-26T10:01:35.495Z,17.13
2022-10-26T10:04:12.698Z,17.30
2022-10-26T10:06:43.593Z,16.73
2022-10-26T10:09:13.905Z,18.73
2022-10-26T10:11:41.726Z,19.38
2022-10-26T10:14:14.869Z,18.45
2022-10-26T10:16:49.874Z,17.38
2022-10-26T10:19:37.217Z,18.30
2022-10-26T10:22:24.891Z,16.73
2022-10-26T10:24:59.888Z,19.05
2022-10-26T10:27:28.096Z,17.38
2022-10-26T10:29:59.875Z,18.05
2022-10-26T10:32:35.369Z,15.23
2022-10-26T10:35:23.335Z,16.77
2022-10-26T10:37:51.321Z,16.58
2022-10-26T10:40:21.298Z,17.35
2022-10-26T10:42:50.079Z,16.25
2022-10-26T10:45:23.445Z,17.98
2022-10-26T10:48:16.648Z,17.52
2022-10-26T10:50:52.574Z,15.23
2022-10-26T10:53:45.954Z,14.25
2022-10-26T10:56:49.878Z,12.18
2022-10-26T10:59:37.842Z,15.07
2022-10-26T11:02:28.726Z,13.50
2022-10-26T11:05:38.998Z,11.75
2022-10-26T11:08:12.896Z,12.63
2022-10-26T11:10:44.694Z,11.73
2022-10-26T11:13:21.962Z,12.57
2022-10-26T11:15:52.584Z,11.50
2022-10-26T11:18:26.281Z,11.63
2022-10-26T11:21:02.292Z,12.90
2022-10-26T11:23:43.321Z,12.93
2022-10-26T11:28:56.001Z,11.63
2022-10-26T11:31:27.802Z,10.77
2022-10-26T11:34:17.451Z,10.90
2022-10-26T11:36:49.236Z,12.75
2022-10-26T11:39:25.554Z,10.50
2022-10-26T11:42:09.257Z,11.50
2022-10-26T11:44:44.118Z,12.63
2022-10-26T11:47:23.766Z,10.27
2022-10-26T11:50:04.881Z,11.65
2022-10-26T11:52:46.480Z,9.45
2022-10-26T11:55:13.001Z,8.40
2022-10-26T11:57:41.842Z,8.45
2022-10-26T12:00:20.643Z,8.63
2022-10-26T12:02:58.129Z,7.72
2022-10-26T12:05:35.994Z,10.48
2022-10-26T12:08:18.770Z,10.65
2022-10-26T12:10:53.841Z,9.55
2022-10-26T12:13:40.506Z,9.25
2022-10-26T12:16:13.278Z,9.10
2022-10-26T12:18:55.474Z,8.65
2022-10-26T12:21:27.514Z,8.80
2022-10-26T12:24:23.025Z,10.10
2022-10-26T12:26:56.604Z,8.77
2022-10-26T12:29:35.703Z,9.95
2022-10-26T12:32:03.555Z,10.30
2022-10-26T12:34:29.913Z,10.60
2022-10-26T12:36:56.285Z,10.07
2022-10-26T12:39:33.794Z,10.23
2022-10-26T12:42:06.008Z,10.10
2022-10-26T12:44:48.292Z,9.57
2022-10-26T12:47:30.014Z,11.27
2022-10-26T12:50:09.353Z,11.73
2022-10-26T12:52:55.874Z,11.35
2022-10-26T12:55:50.365Z,10.82
2022-10-26T12:58:31.034Z,10.95
2022-10-26T13:01:00.194Z,11.50
2022-10-26T13:04:02.155Z,10.80
2022-10-26T13:06:44.332Z,11.18
2022-10-26T13:09:20.117Z,12.65
2022-10-26T13:11:52.154Z,12.30
2022-10-26T13:14:33.928Z,13.98
2022-10-26T13:17:01.963Z,13.85
2022-10-26T13:19:39.422Z,13.18
2022-10-26T13:22:06.085Z,13.20
2022-10-26T13:24:35.136Z,13.73
2022-10-26T13:27:04.555Z,12.93
2022-10-26T13:29:32.322Z,13.60
2022-10-26T13:31:59.934Z,14.55
2022-10-26T13:34:31.392Z,14.27
2022-10-26T13:37:23.393Z,13.63
2022-10-26T13:39:55.714Z,13.25
2022-10-26T13:42:27.546Z,14.13
2022-10-26T13:45:10.256Z,12.30
2022-10-26T13:47:44.676Z,11.88
2022-10-26T13:50:26.521Z,14.02
2022-10-26T13:53:01.855Z,13.50
2022-10-26T13:55:44.892Z,11.82
2022-10-26T13:58:26.605Z,10.80
2022-10-26T14:01:12.713Z,13.50
2022-10-26T14:03:40.353Z,12.93
2022-10-26T14:06:13.998Z,13.05
2022-10-26T14:08:42.589Z,11.57
2022-10-26T14:11:13.336Z,10.10
2022-10-26T14:16:12.926Z,11.15
2022-10-26T14:18:42.405Z,11.88
2022-10-26T14:21:16.123Z,13.07
2022-10-26T14:23:45.712Z,11.68
2022-10-26T14:26:28.941Z,16.02
2022-10-26T14:29:01.026Z,16.85
2022-10-26T14:31:30.616Z,14.90
2022-10-26T14:33:58.905Z,12.27
2022-10-26T14:36:44.476Z,13.07
2022-10-26T14:39:23.969Z,17.15
2022-10-26T14:41:53.003Z,14.90
2022-10-26T14:44:25.191Z,15.27
2022-10-26T14:46:52.504Z,15.07
2022-10-26T14:49:28.705Z,14.32
2022-10-26T14:52:05.590Z,14.98
2022-10-26T14:54:33.753Z,19.50
2022-10-26T14:57:08.481Z,17.02
2022-10-26T14:59:34.942Z,15.40
2022-10-26T15:02:12.730Z,15.20
2022-10-26T15:04:41.427Z,16.30
2022-10-26T15:07:18.652Z,16.25
2022-10-26T15:09:50.064Z,14.55
2022-10-26T15:12:45.542Z,14.23
2022-10-26T15:15:14.707Z,15.25
2022-10-26T15:17:51.623Z,15.93
2022-10-26T15:20:21.504Z,16.25
2022-10-26T15:23:03.463Z,15.95
2022-10-26T15:25:33.577Z,18.40
2022-10-26T15:28:38.998Z,14.77
2022-10-26T15:31:29.145Z,14.98
2022-10-26T15:33:55.503Z,15.27
2022-10-26T15:36:24.729Z,14.65
2022-10-26T15:38:55.536Z,15.27
2022-10-26T15:44:08.982Z,16.33
2022-10-26T15:46:38.603Z,15.40
2022-10-26T15:49:06.941Z,15.05
2022-10-26T15:51:34.212Z,15.10
2022-10-26T15:54:04.800Z,15.98
2022-10-26T15:56:32.058Z,16.45
2022-10-26T15:58:58.933Z,15.88
2022-10-26T16:01:27.515Z,15.93
2022-10-26T16:03:54.744Z,16.10
2022-10-26T16:07:14.130Z,16.83
2022-10-26T16:09:42.228Z,14.10
2022-10-26T16:12:13.157Z,15.77
2022-10-26T16:15:03.863Z,14.77
2022-10-26T16:17:26.577Z,13.82
2022-10-26T16:19:52.994Z,17.00
2022-10-26T16:22:19.394Z,17.88
2022-10-26T16:24:45.773Z,17.25
2022-10-26T16:27:12.207Z,17.67
2022-10-26T16:29:38.627Z,16.98
2022-10-26T16:32:05.272Z,14.73
2022-10-26T16:34:31.680Z,16.02
2022-10-26T16:36:58.105Z,15.88
2022-10-26T16:39:24.490Z,17.33
2022-10-26T16:41:51.373Z,16.70
2022-10-26T16:44:17.831Z,18.83
2022-10-26T16:46:44.318Z,19.83
2022-10-26T16:49:10.845Z,18.45
2022-10-26T16:51:37.275Z,18.90
2022-10-26T16:54:03.930Z,17.67
2022-10-26T16:56:30.414Z,18.02
2022-10-26T16:58:57.232Z,17.70
2022-10-26T17:01:24.052Z,16.73
2022-10-26T17:03:52.154Z,15.82
2022-10-26T17:06:19.596Z,17.58
2022-10-26T17:08:46.133Z,16.67
2022-10-26T17:11:15.091Z,16.48
2022-10-26T17:13:42.164Z,17.50
2022-10-26T17:16:13.868Z,16.85
2022-10-26T17:18:41.879Z,17.20
2022-10-26T17:21:10.129Z,18.98
2022-10-26T17:23:36.691Z,20.17
2022-10-26T17:26:08.829Z,20.63
2022-10-26T17:28:35.640Z,18.73
2022-10-26T17:31:11.060Z,20.95
2022-10-26T17:33:39.035Z,19.33
2022-10-26T17:36:07.566Z,19.30
2022-10-26T17:38:36.488Z,21.85
2022-10-26T17:41:05.396Z,19.98
2022-10-26T17:43:33.460Z,22.38
2022-10-26T17:46:01.313Z,25.88
2022-10-26T17:48:28.909Z,23.40
2022-10-26T17:50:57.927Z,26.20
2022-10-26T17:53:24.472Z,27.38
2022-10-26T17:55:50.888Z,29.35
2022-10-26T17:58:17.351Z,29.95
2022-10-26T18:00:47.863Z,31.02
2022-10-26T18:03:16.289Z,33.03
2022-10-26T18:05:49.480Z,34.25
2022-10-26T18:08:15.857Z,30.02
2022-10-26T18:10:50.281Z,36.22
2022-10-26T18:13:18.513Z,35.10
2022-10-26T18:15:45.585Z,35.00
2022-10-26T18:18:12.355Z,32.42
2022-10-26T18:20:39.077Z,33.55
2022-10-26T18:23:05.885Z,33.42
2022-10-26T18:25:33.708Z,32.20
2022-10-26T18:28:00.266Z,31.95
2022-10-26T18:30:26.855Z,35.95
2022-10-26T18:32:53.829Z,40.10
2022-10-26T18:35:20.902Z,38.95
2022-10-26T18:37:47.374Z,36.72
2022-10-26T18:40:14.015Z,33.72
2022-10-26T18:42:40.438Z,33.83
2022-10-26T18:45:07.137Z,33.92
2022-10-26T18:47:33.725Z,38.40
2022-10-26T18:50:00.108Z,36.30
2022-10-26T18:52:29.904Z,35.90
2022-10-26T18:54:56.480Z,38.08
2022-10-26T18:57:26.991Z,37.55
2022-10-26T18:59:54.880Z,38.40
2022-10-26T19:02:22.907Z,35.90
2022-10-26T19:04:52.986Z,41.40
2022-10-26T19:07:19.568Z,38.03
2022-10-26T19:09:46.032Z,37.65
2022-10-26T19:12:12.445Z,39.72
2022-10-26T19:14:38.922Z,41.60
2022-10-26T19:17:05.391Z,40.10
2022-10-26T19:19:31.795Z,37.53
2022-10-26T19:22:00.255Z,43.85
2022-10-26T19:24:26.692Z,38.67
2022-10-26T19:26:54.030Z,42.33
2022-10-26T19:29:20.990Z,38.60
2022-10-26T19:31:50.714Z,38.45
2022-10-26T19:34:17.869Z,38.83
2022-10-26T19:36:46.230Z,45.75
2022-10-26T19:39:14.852Z,40.17
2022-10-26T19:41:41.630Z,37.95
2022-10-26T19:44:10.175Z,40.15
2022-10-26T19:46:37.041Z,37.72
2022-10-26T19:49:03.805Z,39.65
2022-10-26T19:51:31.491Z,34.55
2022-10-26T19:54:06.233Z,36.95
2022-10-26T19:56:34.637Z,40.38
2022-10-26T19:59:01.551Z,40.47
2022-10-26T20:01:28.407Z,37.67
2022-10-26T20:03:54.847Z,37.25
2022-10-26T20:06:21.266Z,39.03
2022-10-26T20:08:48.806Z,41.25
2022-10-26T20:11:17.090Z,38.58
2022-10-26T20:13:45.218Z,38.28
2022-10-26T20:16:12.401Z,40.47
2022-10-26T20:18:42.637Z,40.67
2022-10-26T20:21:15.715Z,44.15
2022-10-26T20:23:43.204Z,44.67
2022-10-26T20:26:11.847Z,39.05
2022-10-26T20:28:44.397Z,38.20
2022-10-26T20:31:10.797Z,39.20
2022-10-26T20:33:37.247Z,42.10
2022-10-26T20:36:03.784Z,38.83
2022-10-26T20:38:30.423Z,41.15
2022-10-26T20:40:58.696Z,41.00
2022-10-26T20:43:26.773Z,37.83
2022-10-26T20:45:54.257Z,38.15
2022-10-26T20:48:21.377Z,41.42
2022-10-26T20:51:17.265Z,38.03
2022-10-26T20:53:51.426Z,40.58
2022-10-26T20:56:23.738Z,40.35
2022-10-26T20:58:55.933Z,39.33
2022-10-26T21:01:30.468Z,41.53
2022-10-26T21:03:59.895Z,38.92
2022-10-26T21:06:27.297Z,39.67
2022-10-26T21:08:55.255Z,42.33
2022-10-26T21:11:23.698Z,35.42
2022-10-26T21:13:52.008Z,38.67
2022-10-26T21:16:18.545Z,37.75
2022-10-26T21:18:45.266Z,38.35
2022-10-26T21:21:11.725Z,37.50
2022-10-26T21:23:40.060Z,34.50
2022-10-26T21:26:07.636Z,34.92
2022-10-26T21:28:42.103Z,38.28
2022-10-26T21:31:10.988Z,36.33
2022-10-26T21:33:37.660Z,34.58
2022-10-26T21:36:06.721Z,38.95
2022-10-26T21:38:34.006Z,38.30
2022-10-26T21:41:06.906Z,37.30
2022-10-26T21:43:34.516Z,37.03
2022-10-26T21:46:04.498Z,39.40
2022-10-26T21:48:32.317Z,42.55
2022-10-26T21:51:01.370Z,36.35
2022-10-26T21:53:28.311Z,35.05
2022-10-26T21:56:05.848Z,35.83
2022-10-26T21:58:32.285Z,38.33
2022-10-26T22:01:12.865Z,35.40
2022-10-26T22:03:40.415Z,34.95
2022-10-26T22:06:08.532Z,36.38
2022-10-26T22:08:36.047Z,37.28
2022-10-26T22:11:10.565Z,35.65
2022-10-26T22:13:39.753Z,41.47
2022-10-26T22:16:12.157Z,36.95
2022-10-26T22:18:41.508Z,36.97
2022-10-26T22:21:08.660Z,34.72
2022-10-26T22:23:38.246Z,38.10
2022-10-26T22:26:06.954Z,36.72
2022-10-26T22:28:41.566Z,39.85
2022-10-26T22:31:12.890Z,38.55
2022-10-26T22:33:39.576Z,38.60
2022-10-26T22:36:08.269Z,39.00
2022-10-26T22:38:34.716Z,34.15
2022-10-26T22:41:01.502Z,34.03
2022-10-26T22:43:28.507Z,34.08
2022-10-26T22:46:22.060Z,32.95
2022-10-26T22:48:53.474Z,39.40
2022-10-26T22:51:21.591Z,33.67
2022-10-26T22:53:55.408Z,34.72
2022-10-26T22:56:23.764Z,37.90
2022-10-26T22:58:51.981Z,37.88
2022-10-26T23:01:24.637Z,41.50
2022-10-26T23:03:52.696Z,41.78
2022-10-26T23:06:20.539Z,41.92
2022-10-26T23:08:46.994Z,40.78
2022-10-26T23:11:16.524Z,43.50
2022-10-26T23:13:43.289Z,41.17
2022-10-26T23:16:13.055Z,41.85
2022-10-26T23:18:40.094Z,39.95
2022-10-26T23:21:08.031Z,41.22
2022-10-26T23:23:35.059Z,42.00
2022-10-26T23:26:02.696Z,39.72
2022-10-26T23:28:29.179Z,41.10
2022-10-26T23:30:55.617Z,41.60
2022-10-26T23:33:22.446Z,39.17
2022-10-26T23:35:51.315Z,41.97
2022-10-26T23:38:18.573Z,41.20
2022-10-26T23:40:56.800Z,40.72
2022-10-26T23:43:23.746Z,33.88
2022-10-26T23:45:50.279Z,37.92
2022-10-26T23:48:21.620Z,36.55
2022-10-26T23:50:49.691Z,36.47
2022-10-26T23:53:18.951Z,36.83
2022-10-26T23:55:46.265Z,37.65
2022-10-26T23:58:13.370Z,35.25
